createdAt,value
2022-10-08T00:01:48.348Z,4.77
2022-10-08T00:06:53.133Z,5.97
2022-10-08T00:11:57.813Z,5.73
2022-10-08T00:17:01.253Z,4.77
2022-10-08T00:22:05.982Z,4.70
2022-10-08T00:27:10.223Z,4.57
2022-10-08T00:32:13.656Z,4.10
2022-10-08T00:37:18.338Z,5.00
2022-10-08T00:42:21.852Z,4.00
2022-10-08T00:47:37.777Z,5.23
2022-10-08T00:52:45.749Z,5.67
2022-10-08T00:57:49.879Z,6.00
2022-10-08T01:02:54.257Z,5.67
2022-10-08T01:08:07.456Z,5.70
2022-10-08T01:13:20.730Z,5.47
2022-10-08T01:18:34.222Z,5.33
2022-10-08T01:23:59.233Z,5.13
2022-10-08T01:29:08.285Z,4.80
2022-10-08T01:34:18.976Z,5.00
2022-10-08T01:39:26.796Z,4.10
2022-10-08T01:44:35.832Z,5.00
2022-10-08T01:49:44.737Z,4.87
2022-10-08T01:54:50.509Z,5.70
2022-10-08T01:59:59.227Z,6.30
2022-10-08T02:05:02.966Z,4.80
2022-10-08T02:10:09.037Z,4.87
2022-10-08T02:15:17.271Z,4.43
2022-10-08T02:20:26.955Z,3.67
2022-10-08T02:25:34.499Z,3.13
2022-10-08T02:30:44.490Z,2.80
2022-10-08T02:35:51.940Z,3.03
2022-10-08T02:40:59.569Z,3.77
2022-10-08T02:46:09.702Z,2.87
2022-10-08T02:51:18.704Z,2.40
2022-10-08T02:56:28.449Z,3.10
2022-10-08T03:01:39.317Z,2.20
2022-10-08T03:06:42.976Z,1.90
2022-10-08T03:11:46.921Z,2.20
2022-10-08T03:16:51.875Z,2.30
2022-10-08T03:21:56.551Z,1.90
2022-10-08T03:26:59.933Z,1.80
2022-10-08T03:32:04.796Z,4.77
2022-10-08T03:37:10.798Z,2.50
2022-10-08T03:42:14.308Z,4.70
2022-10-08T03:47:18.920Z,5.70
2022-10-08T03:52:22.249Z,5.87
2022-10-08T03:57:25.631Z,5.77
2022-10-08T04:02:30.422Z,6.00
2022-10-08T04:07:33.695Z,5.90
2022-10-08T04:12:38.167Z,4.40
2022-10-08T04:17:43.612Z,6.43
2022-10-08T04:22:49.010Z,5.13
2022-10-08T04:27:52.706Z,4.17
2022-10-08T04:32:57.483Z,3.67
2022-10-08T04:38:00.814Z,3.30
2022-10-08T04:43:04.217Z,2.60
2022-10-08T04:48:08.983Z,2.60
2022-10-08T04:53:12.210Z,1.90
2022-10-08T04:58:15.501Z,2.00
2022-10-08T05:03:20.234Z,1.87
2022-10-08T05:08:23.733Z,1.70
2022-10-08T05:13:27.401Z,2.03
2022-10-08T05:18:32.762Z,2.10
2022-10-08T05:23:36.628Z,1.60
2022-10-08T05:28:40.076Z,1.70
2022-10-08T05:33:45.244Z,1.80
2022-10-08T05:38:48.959Z,1.80
2022-10-08T05:43:54.575Z,2.10
2022-10-08T05:49:01.355Z,3.00
2022-10-08T05:54:05.118Z,3.10
2022-10-08T05:59:08.606Z,2.50
2022-10-08T06:04:14.184Z,1.90
2022-10-08T06:09:19.596Z,2.57
2022-10-08T06:14:24.354Z,1.83
2022-10-08T06:19:28.991Z,2.90
2022-10-08T06:24:33.637Z,2.60
2022-10-08T06:29:37.839Z,2.70
2022-10-08T06:34:42.645Z,1.90
2022-10-08T06:39:48.471Z,1.83
2022-10-08T06:44:52.249Z,1.80
2022-10-08T06:49:57.154Z,1.97
2022-10-08T06:55:00.746Z,1.70
2022-10-08T07:00:04.758Z,2.00
2022-10-08T07:05:10.686Z,2.23
2022-10-08T07:10:18.258Z,1.77
2022-10-08T07:15:22.898Z,1.83
2022-10-08T07:20:27.737Z,2.50
2022-10-08T07:25:31.571Z,1.23
2022-10-08T07:30:38.597Z,1.50
2022-10-08T07:35:43.760Z,1.70
2022-10-08T07:40:48.649Z,1.83
2022-10-08T07:45:52.301Z,1.50
2022-10-08T07:50:57.334Z,1.30
2022-10-08T07:56:01.045Z,1.90
2022-10-08T08:01:06.571Z,1.77
2022-10-08T08:06:13.244Z,1.20
2022-10-08T08:11:18.884Z,1.13
2022-10-08T08:16:25.416Z,1.27
2022-10-08T08:21:32.344Z,2.00
2022-10-08T08:26:39.015Z,1.17
2022-10-08T08:31:44.359Z,1.60
2022-10-08T08:36:51.103Z,1.17
2022-10-08T08:42:07.426Z,1.00
2022-10-08T08:47:18.891Z,1.07
2022-10-08T08:52:27.345Z,1.30
2022-10-08T08:57:41.375Z,1.77
2022-10-08T09:02:52.832Z,1.63
2022-10-08T09:08:05.366Z,1.53
2022-10-08T09:13:18.931Z,0.90
2022-10-08T09:18:22.445Z,1.47
2022-10-08T09:23:28.038Z,0.70
2022-10-08T09:28:44.587Z,1.27
2022-10-08T09:33:56.093Z,1.13
2022-10-08T09:39:02.042Z,1.07
2022-10-08T09:44:16.325Z,0.90
2022-10-08T09:49:29.046Z,0.70
2022-10-08T09:54:43.394Z,0.60
2022-10-08T09:59:51.610Z,0.63
2022-10-08T10:04:57.084Z,0.70
2022-10-08T10:10:04.153Z,0.73
2022-10-08T10:15:16.268Z,0.70
2022-10-08T10:20:24.721Z,0.70
2022-10-08T10:25:38.373Z,1.03
2022-10-08T10:30:50.682Z,1.10
2022-10-08T10:35:57.134Z,1.00
2022-10-08T10:41:14.285Z,0.43
2022-10-08T10:46:33.196Z,1.00
2022-10-08T10:52:00.681Z,0.50
2022-10-08T10:57:10.809Z,0.90
2022-10-08T11:02:26.180Z,0.57
2022-10-08T11:07:53.907Z,1.13
2022-10-08T11:13:17.716Z,0.70
2022-10-08T11:18:30.989Z,0.80
2022-10-08T11:23:56.575Z,1.10
2022-10-08T11:29:14.404Z,0.90
2022-10-08T11:34:24.693Z,1.03
2022-10-08T11:39:37.143Z,4.30
2022-10-08T11:44:43.084Z,1.10
2022-10-08T11:49:55.098Z,2.53
2022-10-08T11:55:01.189Z,0.97
2022-10-08T12:00:08.837Z,1.73
2022-10-08T12:05:32.628Z,0.90
2022-10-08T12:10:38.180Z,0.80
2022-10-08T12:15:54.099Z,1.17
2022-10-08T12:21:31.100Z,1.20
2022-10-08T12:26:34.551Z,0.83
2022-10-08T12:31:42.143Z,0.90
2022-10-08T12:37:04.047Z,0.90
2022-10-08T12:42:18.960Z,1.03
2022-10-08T12:47:35.876Z,1.13
2022-10-08T12:52:39.558Z,1.57
2022-10-08T12:57:44.556Z,1.13
2022-10-08T13:03:00.543Z,0.73
2022-10-08T13:08:19.964Z,1.47
2022-10-08T13:13:44.961Z,0.90
2022-10-08T13:18:53.623Z,1.20
2022-10-08T13:23:57.312Z,1.00
2022-10-08T13:29:19.507Z,1.03
2022-10-08T13:34:27.212Z,1.10
2022-10-08T13:39:34.695Z,1.50
2022-10-08T13:44:39.812Z,2.50
2022-10-08T13:49:44.857Z,1.40
2022-10-08T13:54:49.984Z,2.40
2022-10-08T13:59:53.651Z,1.77
2022-10-08T14:04:58.753Z,1.33
2022-10-08T14:10:03.923Z,1.00
2022-10-08T14:15:08.984Z,1.47
2022-10-08T14:20:14.004Z,1.50
2022-10-08T14:25:19.774Z,1.60
2022-10-08T14:30:23.347Z,2.23
2022-10-08T14:35:28.321Z,1.50
2022-10-08T14:40:31.896Z,1.20
2022-10-08T14:45:35.521Z,1.67
2022-10-08T14:50:42.705Z,1.63
2022-10-08T14:56:10.571Z,1.00
2022-10-08T15:01:09.882Z,1.30
2022-10-08T15:06:14.763Z,1.87
2022-10-08T15:11:18.168Z,1.60
2022-10-08T15:16:22.097Z,1.73
2022-10-08T15:21:26.929Z,2.87
2022-10-08T15:26:30.346Z,1.90
2022-10-08T15:31:33.805Z,1.87
2022-10-08T15:36:38.710Z,2.30
2022-10-08T15:41:43.582Z,1.67
2022-10-08T15:46:47.600Z,2.10
2022-10-08T15:51:52.218Z,1.67
2022-10-08T15:56:55.695Z,1.53
2022-10-08T16:01:59.459Z,1.90
2022-10-08T16:07:04.281Z,1.80
2022-10-08T16:12:07.782Z,2.47
2022-10-08T16:17:11.262Z,2.47
2022-10-08T16:22:16.249Z,2.10
2022-10-08T16:27:19.720Z,3.67
2022-10-08T16:32:23.441Z,3.03
2022-10-08T16:37:28.744Z,2.50
2022-10-08T16:42:32.669Z,3.07
2022-10-08T16:47:36.289Z,2.40
2022-10-08T16:52:41.531Z,1.93
2022-10-08T16:57:51.344Z,3.57
2022-10-08T17:02:55.202Z,2.43
2022-10-08T17:07:59.953Z,4.20
2022-10-08T17:13:03.403Z,3.10
2022-10-08T17:18:06.853Z,3.17
2022-10-08T17:23:12.620Z,3.93
2022-10-08T17:28:16.226Z,4.70
2022-10-08T17:33:19.794Z,3.97
2022-10-08T17:38:24.784Z,2.60
2022-10-08T17:43:29.285Z,3.40
2022-10-08T17:48:32.885Z,2.50
2022-10-08T17:53:39.575Z,3.03
2022-10-08T17:58:43.131Z,3.30
2022-10-08T18:03:53.014Z,3.27
2022-10-08T18:09:00.421Z,4.27
2022-10-08T18:14:04.902Z,2.67
2022-10-08T18:19:09.158Z,4.60
2022-10-08T18:24:14.064Z,4.70
2022-10-08T18:29:17.827Z,5.70
2022-10-08T18:34:21.374Z,3.90
2022-10-08T18:39:32.291Z,12.20
2022-10-08T18:44:35.727Z,7.80
2022-10-08T18:49:39.453Z,5.60
2022-10-08T18:54:47.159Z,5.43
2022-10-08T18:59:50.798Z,6.97
2022-10-08T19:04:59.227Z,7.77
2022-10-08T19:10:05.178Z,7.77
2022-10-08T19:15:09.246Z,6.17
2022-10-08T19:20:14.464Z,2.97
2022-10-08T19:25:26.674Z,2.90
2022-10-08T19:30:36.760Z,3.73
2022-10-08T19:35:41.865Z,3.87
2022-10-08T19:40:46.942Z,3.80
2022-10-08T19:45:50.926Z,6.30
2022-10-08T19:50:54.345Z,7.80
2022-10-08T19:56:05.027Z,4.50
2022-10-08T20:01:12.396Z,3.70
2022-10-08T20:06:24.050Z,3.10
2022-10-08T20:11:30.972Z,3.10
2022-10-08T20:16:36.368Z,3.63
2022-10-08T20:21:39.836Z,3.23
2022-10-08T20:26:46.007Z,3.90
2022-10-08T20:31:58.054Z,3.83
2022-10-08T20:37:03.452Z,3.80
2022-10-08T20:42:08.391Z,8.70
2022-10-08T20:47:11.825Z,3.50
2022-10-08T20:52:15.635Z,3.57
2022-10-08T20:57:20.523Z,3.63
2022-10-08T21:02:24.170Z,3.50
2022-10-08T21:07:27.722Z,3.40
2022-10-08T21:12:34.347Z,4.33
2022-10-08T21:17:38.111Z,8.70
2022-10-08T21:22:41.500Z,4.87
2022-10-08T21:27:46.594Z,3.97
2022-10-08T21:32:50.305Z,4.57
2022-10-08T21:37:54.029Z,3.00
2022-10-08T21:42:59.223Z,3.00
2022-10-08T21:48:02.747Z,3.20
2022-10-08T21:53:07.334Z,3.30
2022-10-08T21:58:12.176Z,2.77
2022-10-08T22:03:17.560Z,3.20
2022-10-08T22:08:21.497Z,3.20
2022-10-08T22:13:26.278Z,3.10
2022-10-08T22:18:31.618Z,2.73
2022-10-08T22:23:36.710Z,2.60
2022-10-08T22:28:42.642Z,2.70
2022-10-08T22:33:47.046Z,2.87
2022-10-08T22:38:51.284Z,2.40
2022-10-08T22:43:56.514Z,3.00
2022-10-08T22:49:00.968Z,2.70
2022-10-08T22:54:05.109Z,3.17
2022-10-08T22:59:10.910Z,4.30
2022-10-08T23:04:14.558Z,2.87
2022-10-08T23:09:18.139Z,2.97
2022-10-08T23:14:23.139Z,2.03
2022-10-08T23:19:26.676Z,1.80
2022-10-08T23:24:30.478Z,2.27
2022-10-08T23:29:35.370Z,1.90
2022-10-08T23:34:38.900Z,2.07
2022-10-08T23:39:42.514Z,1.90
2022-10-08T23:44:47.565Z,2.00
2022-10-08T23:49:51.352Z,1.77
2022-10-08T23:54:54.880Z,1.53
2022-10-08T23:59:59.834Z,1.73
